map of YBK home
YBK - Airport
Location
City:  Baker Lake, Nunavut, Canada
Name:Baker Lake Airport
ICAO:CYBK
IATA:YBK

Details
Type:Airport (Airfield)
Use:Public/Civil
Latitude:6417'56"N (64.298889)
Longitude:9604'40"W (-96.077777)
Elevation:61 ft (19 m)
Variation:1.96W (WMM2015v2 magnetic declination)
0.17 annual change
Runways:1
Longest:4195 ft (1279 m)

Time
Time Zone:UTC-6 (DST-5)
Local Time:

Weather
METAR:CYBK 041400Z 33028G35KT 3SM IC BLSN FEW007 SCT200 M32/M36 A3012 RMK BLSN1ST1CS2 PRESRR SLP204
TAF:CYBK 041138Z 0412/0424 33025G35KT 1/2SM IC BLSN VV004
TEMPO 0412/0424 VRB03KT 11/2SM IC FEW004 BKN140
RMK NXT FCST BY 041800Z

Related Locations
Nearby:
Farthest:YWKS: 11630 mi / 18717 km
Wilkins Runway (Casey), Upper Peterson Glacier, AQ

Find:

   beyond  
but within

Other Information
Maps:
NOTAMs:
Links:
Sources:

  
  • flag of Canada
  • flag of Nunavut
  

Airport Diagram

Airport diagram for YBK

Airport diagram PDF

Sectional Chart

Flight Planning
at skyvector.com

Satellite Image

Google Maps Satellite view

 

Copyright © 2004-2019 Karl L. Swartz. All rights reserved.
The Great Circle Mapper name and logo are trademarks of the Great Circle Mapper.
All other trademarks mentioned herein belong to their respective owners.
Please see credits for attibutions and further copyright information.

  Follow gcmap on Facebook Follow gcmap on Twitter GCmap on LinkedIn

hCard Microformat

Geo Microformat